Kezdőlap
METAR-TAF:

METAR-TAF

Repülőterek :

Council Bluffs, Iowa, Amerikai Egyesült Államok

földrajzi szélesség: 41-16N, földrajzi hosszúság: 095-46W, magasság: 382 m

Jelenlegi meteorológiai megfigyelések

A jelentés 10 perccel ezelõtt készült, 14:35 UTC
Dél-délkeleti szél 7 kt
Hőmérséklet -17°C
Páratartalom 100%
Légköri nyomás 1030 hPa
Látótávolság: 16.1 km
Derült ég

METAR: KCBF 211435Z AUTO 16007KT 10SM CLR M17/M17 A3043 RMK AO2

Idő: 08:45 (14:45 UTC)


TAF: hiányzik

Meteorológiai megfigyelések és előrejelzések több, mint 4000 repülőtéren (METAR és TAF jelentéseket).

A térképen piros és sárga pontok jelzik az elérhető meteorológiai állomásokat.

Mozgassa az egeret a pont fölött, hogy megjelenjen az állomás neve.

Azután kattintson az időjárási megfigyelések és előrejelzések megtekintéséhez.

A térkép megváltoztatása: kattintson a fekete keresztel jelölt zöld gombra ráközelítéshez, a vonallal jelölt zöld gombra távolításhoz, vagy a zöld nyilakra a szomszédos térképek eléréséhez.


METAR-TAF: